createdAt,value
2019-01-30T00:01:39.682Z,9.90
2019-01-30T00:04:08.692Z,9.73
2019-01-30T00:06:37.744Z,8.90
2019-01-30T00:09:09.705Z,9.03
2019-01-30T00:11:39.162Z,9.67
2019-01-30T00:14:08.215Z,9.90
2019-01-30T00:16:37.826Z,9.27
2019-01-30T00:19:06.883Z,9.80
2019-01-30T00:21:35.940Z,10.30
2019-01-30T00:24:05.833Z,10.13
2019-01-30T00:26:34.842Z,10.10
2019-01-30T00:29:04.539Z,9.67
2019-01-30T00:31:33.570Z,11.03
2019-01-30T00:34:02.978Z,10.30
2019-01-30T00:36:32.038Z,10.00
2019-01-30T00:39:01.062Z,11.27
2019-01-30T00:41:30.156Z,11.63
2019-01-30T00:43:59.198Z,10.43
2019-01-30T00:46:28.528Z,11.63
2019-01-30T00:48:57.537Z,13.00
2019-01-30T00:51:26.562Z,11.70
2019-01-30T00:53:55.604Z,11.13
2019-01-30T00:56:24.706Z,11.50
2019-01-30T00:58:53.742Z,11.03
2019-01-30T01:01:22.750Z,10.73
2019-01-30T01:03:52.446Z,15.37
2019-01-30T01:06:21.509Z,10.33
2019-01-30T01:08:50.640Z,10.87
2019-01-30T01:11:20.322Z,9.80
2019-01-30T01:13:49.342Z,10.17
2019-01-30T01:16:18.322Z,9.97
2019-01-30T01:18:47.370Z,10.87
2019-01-30T01:21:16.707Z,10.80
2019-01-30T01:23:46.409Z,10.70
2019-01-30T01:26:15.448Z,11.10
2019-01-30T01:28:44.484Z,10.50
2019-01-30T01:31:13.563Z,10.00
2019-01-30T01:33:43.292Z,9.90
2019-01-30T01:36:12.327Z,10.67
2019-01-30T01:38:41.337Z,8.53
2019-01-30T01:41:10.722Z,10.33
2019-01-30T01:43:40.062Z,10.63
2019-01-30T01:46:09.501Z,10.23
2019-01-30T01:48:38.566Z,10.03
2019-01-30T01:51:08.306Z,10.17
2019-01-30T01:53:37.815Z,10.63
2019-01-30T01:56:07.128Z,10.33
2019-01-30T01:58:36.186Z,9.73
2019-01-30T02:01:05.409Z,11.27
2019-01-30T02:03:34.434Z,10.80
2019-01-30T02:06:03.930Z,11.53
2019-01-30T02:08:33.058Z,11.40
2019-01-30T02:11:02.514Z,11.70
2019-01-30T02:13:31.666Z,11.63
2019-01-30T02:16:00.699Z,11.30
2019-01-30T02:18:29.711Z,11.50
2019-01-30T02:20:59.090Z,11.23
2019-01-30T02:23:28.237Z,11.67
2019-01-30T02:25:57.229Z,10.93
2019-01-30T02:28:26.258Z,12.07
2019-01-30T02:30:55.728Z,11.87
2019-01-30T02:33:25.108Z,12.13
2019-01-30T02:35:54.544Z,11.87
2019-01-30T02:38:24.007Z,11.67
2019-01-30T02:40:53.115Z,12.07
2019-01-30T02:43:22.155Z,12.17
2019-01-30T02:45:51.529Z,12.03
2019-01-30T02:48:20.598Z,12.07
2019-01-30T02:50:50.102Z,12.10
2019-01-30T02:53:19.211Z,11.43
2019-01-30T02:55:48.230Z,12.00
2019-01-30T02:58:17.302Z,13.23
2019-01-30T03:00:58.473Z,12.57
2019-01-30T03:03:18.096Z,12.43
2019-01-30T03:05:47.124Z,12.30
2019-01-30T03:08:16.165Z,11.43
2019-01-30T03:10:45.654Z,11.60
2019-01-30T03:13:15.163Z,11.83
2019-01-30T03:15:44.221Z,12.47
2019-01-30T03:18:13.314Z,12.20
2019-01-30T03:20:42.432Z,12.77
2019-01-30T03:23:12.123Z,13.07
2019-01-30T03:25:41.172Z,12.67
2019-01-30T03:28:10.243Z,13.00
2019-01-30T03:30:39.295Z,13.17
2019-01-30T03:33:08.656Z,12.63
2019-01-30T03:35:37.696Z,12.87
2019-01-30T03:38:07.036Z,12.83
2019-01-30T03:40:36.065Z,13.50
2019-01-30T03:43:05.921Z,13.73
2019-01-30T03:45:35.231Z,14.30
2019-01-30T03:48:04.277Z,13.83
2019-01-30T03:50:33.385Z,14.90
2019-01-30T03:53:02.398Z,15.43
2019-01-30T03:55:31.753Z,14.57
2019-01-30T03:58:01.602Z,13.87
2019-01-30T04:00:30.621Z,15.67
2019-01-30T04:02:59.672Z,15.23
2019-01-30T04:05:29.036Z,15.03
2019-01-30T04:07:58.828Z,15.27
2019-01-30T04:10:28.204Z,14.90
2019-01-30T04:12:57.247Z,15.07
2019-01-30T04:15:26.633Z,16.07
2019-01-30T04:17:55.716Z,14.90
2019-01-30T04:20:25.270Z,15.40
2019-01-30T04:22:54.281Z,14.70
2019-01-30T04:25:23.436Z,15.07
2019-01-30T04:27:52.647Z,15.57
2019-01-30T04:30:23.202Z,15.03
2019-01-30T04:32:52.367Z,15.77
2019-01-30T04:35:21.387Z,15.83
2019-01-30T04:37:50.743Z,16.60
2019-01-30T04:40:21.165Z,17.00
2019-01-30T04:42:50.291Z,16.87
2019-01-30T04:45:21.847Z,17.13
2019-01-30T04:47:50.994Z,17.53
2019-01-30T04:50:20.418Z,16.97
2019-01-30T04:52:49.603Z,17.60
2019-01-30T04:55:18.922Z,17.53
2019-01-30T04:57:47.934Z,17.73
2019-01-30T05:00:22.241Z,17.23
2019-01-30T05:02:51.271Z,16.57
2019-01-30T05:05:20.303Z,17.63
2019-01-30T05:07:49.370Z,16.97
2019-01-30T05:10:18.476Z,16.43
2019-01-30T05:12:47.526Z,16.33
2019-01-30T05:15:18.018Z,16.57
2019-01-30T05:17:47.333Z,17.93
2019-01-30T05:20:17.985Z,17.00
2019-01-30T05:22:47.412Z,17.37
2019-01-30T05:25:16.543Z,17.77
2019-01-30T05:27:45.562Z,18.17
2019-01-30T05:30:20.588Z,17.47
2019-01-30T05:32:49.645Z,16.93
2019-01-30T05:35:18.657Z,18.23
2019-01-30T05:37:47.676Z,17.17
2019-01-30T05:40:17.495Z,17.33
2019-01-30T05:42:46.519Z,17.97
2019-01-30T05:45:16.200Z,17.53
2019-01-30T05:47:45.326Z,18.20
2019-01-30T05:50:15.410Z,17.70
2019-01-30T05:52:44.436Z,18.03
2019-01-30T05:55:14.454Z,17.83
2019-01-30T05:57:43.530Z,18.57
2019-01-30T06:00:26.658Z,18.47
2019-01-30T06:02:55.703Z,16.97
2019-01-30T06:05:24.841Z,18.67
2019-01-30T06:07:53.869Z,18.80
2019-01-30T06:10:23.235Z,18.20
2019-01-30T06:12:52.296Z,18.90
2019-01-30T06:15:21.843Z,18.30
2019-01-30T06:17:50.974Z,19.10
2019-01-30T06:20:22.462Z,18.27
2019-01-30T06:22:51.512Z,19.07
2019-01-30T06:25:21.040Z,18.73
2019-01-30T06:27:50.205Z,19.10
2019-01-30T06:30:20.071Z,20.10
2019-01-30T06:32:49.191Z,19.53
2019-01-30T06:35:18.267Z,18.97
2019-01-30T06:37:47.332Z,18.77
2019-01-30T06:40:21.681Z,19.43
2019-01-30T06:42:51.002Z,18.23
2019-01-30T06:45:20.049Z,19.20
2019-01-30T06:47:49.071Z,19.53
2019-01-30T06:50:18.383Z,20.43
2019-01-30T06:52:47.508Z,18.97
2019-01-30T06:55:16.536Z,19.40
2019-01-30T06:57:45.529Z,18.53
2019-01-30T07:00:19.729Z,20.07
2019-01-30T07:02:48.908Z,19.80
2019-01-30T07:05:17.972Z,20.07
2019-01-30T07:07:46.980Z,20.47
2019-01-30T07:10:19.323Z,19.87
2019-01-30T07:12:48.420Z,20.87
2019-01-30T07:15:17.703Z,20.73
2019-01-30T07:17:46.865Z,19.67
2019-01-30T07:20:16.641Z,19.67
2019-01-30T07:22:45.911Z,20.70
2019-01-30T07:25:16.264Z,20.63
2019-01-30T07:27:45.595Z,22.07
2019-01-30T07:30:27.387Z,21.33
2019-01-30T07:32:56.405Z,20.13
2019-01-30T07:35:25.483Z,20.90
2019-01-30T07:37:54.688Z,20.47
2019-01-30T07:40:23.743Z,20.13
2019-01-30T07:42:52.829Z,21.40
2019-01-30T07:45:23.587Z,20.87
2019-01-30T07:47:52.614Z,22.43
2019-01-30T07:50:22.247Z,21.90
2019-01-30T07:52:51.421Z,19.83
2019-01-30T07:55:20.794Z,21.30
2019-01-30T07:57:49.907Z,22.33
2019-01-30T08:00:30.359Z,21.73
2019-01-30T08:02:59.375Z,20.80
2019-01-30T08:05:28.844Z,21.77
2019-01-30T08:07:57.885Z,21.00
2019-01-30T08:10:26.910Z,21.83
2019-01-30T08:12:55.961Z,21.50
2019-01-30T08:15:25.953Z,21.70
2019-01-30T08:17:55.271Z,21.23
2019-01-30T08:20:24.308Z,21.33
2019-01-30T08:22:53.429Z,21.27
2019-01-30T08:25:23.887Z,21.20
2019-01-30T08:27:53.671Z,19.23
2019-01-30T08:30:25.568Z,21.87
2019-01-30T08:33:04.300Z,19.30
2019-01-30T08:35:27.924Z,20.20
2019-01-30T08:37:57.752Z,18.40
2019-01-30T08:40:26.806Z,20.63
2019-01-30T08:42:55.860Z,20.33
2019-01-30T08:45:27.163Z,18.27
2019-01-30T08:47:56.200Z,18.03
2019-01-30T08:50:26.003Z,18.70
2019-01-30T08:52:55.056Z,17.03
2019-01-30T08:55:24.135Z,16.50
2019-01-30T08:57:53.258Z,16.33
2019-01-30T09:00:23.611Z,17.23
2019-01-30T09:02:53.065Z,16.57
2019-01-30T09:05:23.050Z,17.13
2019-01-30T09:07:52.085Z,16.40
2019-01-30T09:10:22.495Z,16.23
2019-01-30T09:12:51.522Z,15.97
2019-01-30T09:15:21.890Z,15.73
2019-01-30T09:17:51.668Z,15.43
2019-01-30T09:20:22.419Z,15.50
2019-01-30T09:22:51.817Z,14.47
2019-01-30T09:25:22.695Z,13.20
2019-01-30T09:27:52.224Z,13.43
2019-01-30T09:30:24.147Z,12.63
2019-01-30T09:32:55.297Z,11.50
2019-01-30T09:35:24.305Z,11.27
2019-01-30T09:37:53.362Z,10.80
2019-01-30T09:40:22.620Z,9.50
2019-01-30T09:42:51.630Z,9.83
2019-01-30T09:45:22.287Z,9.30
2019-01-30T09:47:51.474Z,8.43
2019-01-30T09:50:20.976Z,9.07
2019-01-30T09:52:50.211Z,7.63
2019-01-30T09:55:19.856Z,7.80
2019-01-30T09:57:48.911Z,8.07
2019-01-30T10:00:27.333Z,7.17
2019-01-30T10:02:56.689Z,7.53
2019-01-30T10:05:25.717Z,6.67
2019-01-30T10:07:55.229Z,7.30
2019-01-30T10:10:27.407Z,7.00
2019-01-30T10:12:56.784Z,7.10
2019-01-30T10:15:28.282Z,6.50
2019-01-30T10:17:57.276Z,6.83
2019-01-30T10:20:27.050Z,6.50
2019-01-30T10:22:56.421Z,6.03
2019-01-30T10:25:25.429Z,6.03
2019-01-30T10:27:54.904Z,6.00
2019-01-30T10:30:29.200Z,6.20
2019-01-30T10:32:58.542Z,5.43
2019-01-30T10:35:27.839Z,5.60
2019-01-30T10:37:57.265Z,5.90
2019-01-30T10:40:26.999Z,5.63
2019-01-30T10:42:57.358Z,6.67
2019-01-30T10:45:27.594Z,7.00
2019-01-30T10:47:56.611Z,6.37
2019-01-30T10:50:27.051Z,6.10
2019-01-30T10:52:56.098Z,5.83
2019-01-30T10:55:26.778Z,5.90
2019-01-30T10:57:57.979Z,6.50
2019-01-30T11:00:32.894Z,5.60
2019-01-30T11:03:02.316Z,6.17
2019-01-30T11:05:31.340Z,6.90
2019-01-30T11:08:00.348Z,6.37
2019-01-30T11:10:29.407Z,6.20
2019-01-30T11:12:58.430Z,6.60
2019-01-30T11:15:28.377Z,6.30
2019-01-30T11:17:58.134Z,6.37
2019-01-30T11:20:27.270Z,7.93
2019-01-30T11:22:56.270Z,6.07
2019-01-30T11:25:30.486Z,6.80
2019-01-30T11:28:00.208Z,6.37
2019-01-30T11:30:29.338Z,6.27
2019-01-30T11:32:58.484Z,5.67
2019-01-30T11:35:27.485Z,5.83
2019-01-30T11:37:56.526Z,5.67
2019-01-30T11:40:27.253Z,6.30
2019-01-30T11:42:56.266Z,5.80
2019-01-30T11:45:34.108Z,8.20
2019-01-30T11:48:03.242Z,15.70
2019-01-30T11:50:32.311Z,11.50
2019-01-30T11:53:01.386Z,6.30
2019-01-30T11:55:30.848Z,5.03
2019-01-30T11:57:59.899Z,5.13
2019-01-30T12:00:33.600Z,4.90
2019-01-30T12:03:03.042Z,5.57
2019-01-30T12:05:32.126Z,5.83
2019-01-30T12:08:01.153Z,4.93
2019-01-30T12:10:30.684Z,5.00
2019-01-30T12:12:59.682Z,4.20
2019-01-30T12:15:28.737Z,4.00
2019-01-30T12:17:58.156Z,4.20
2019-01-30T12:20:27.174Z,3.47
2019-01-30T12:22:56.507Z,3.80
2019-01-30T12:25:25.914Z,3.50
2019-01-30T12:27:55.194Z,3.43
2019-01-30T12:30:26.235Z,3.20
2019-01-30T12:32:55.250Z,3.00
2019-01-30T12:35:24.374Z,3.23
2019-01-30T12:37:53.370Z,3.27
2019-01-30T12:40:22.408Z,2.87
2019-01-30T12:42:51.650Z,3.50
2019-01-30T12:45:26.640Z,3.33
2019-01-30T12:47:55.918Z,3.57
2019-01-30T12:50:25.057Z,3.20
2019-01-30T12:52:54.122Z,3.60
2019-01-30T12:55:23.340Z,3.50
2019-01-30T12:57:52.713Z,3.27
2019-01-30T13:00:23.965Z,3.40
2019-01-30T13:02:53.380Z,3.60
2019-01-30T13:05:24.414Z,2.97
2019-01-30T13:07:53.437Z,3.00
2019-01-30T13:10:22.452Z,3.10
2019-01-30T13:12:51.904Z,3.30
2019-01-30T13:15:22.423Z,3.30
2019-01-30T13:17:51.808Z,3.03
2019-01-30T13:20:21.760Z,2.90
2019-01-30T13:22:51.110Z,3.20
2019-01-30T13:25:22.714Z,2.90
2019-01-30T13:27:51.770Z,3.50
2019-01-30T13:30:23.470Z,2.50
2019-01-30T13:32:52.690Z,2.87
2019-01-30T13:35:21.875Z,2.93
2019-01-30T13:37:50.880Z,3.00
2019-01-30T13:40:22.624Z,3.37
2019-01-30T13:42:52.536Z,2.70
2019-01-30T13:45:21.546Z,3.23
2019-01-30T13:47:50.569Z,3.10
2019-01-30T13:50:21.511Z,3.43
2019-01-30T13:52:50.596Z,3.70
2019-01-30T13:55:20.032Z,3.50
2019-01-30T13:57:49.131Z,3.97
2019-01-30T14:00:26.830Z,4.13
2019-01-30T14:02:55.878Z,3.43
2019-01-30T14:05:24.928Z,3.20
2019-01-30T14:07:54.158Z,4.17
2019-01-30T14:10:23.409Z,2.77
2019-01-30T14:12:52.434Z,3.00
2019-01-30T14:15:22.500Z,2.90
2019-01-30T14:17:51.776Z,2.87
2019-01-30T14:20:21.235Z,2.60
2019-01-30T14:22:50.359Z,2.47
2019-01-30T14:25:19.703Z,2.40
2019-01-30T14:27:48.990Z,3.10
2019-01-30T14:30:26.233Z,2.90
2019-01-30T14:32:55.590Z,2.90
2019-01-30T14:35:26.231Z,2.90
2019-01-30T14:37:55.784Z,2.93
2019-01-30T14:40:25.373Z,3.40
2019-01-30T14:42:54.445Z,3.30
2019-01-30T14:45:23.542Z,3.10
2019-01-30T14:47:52.610Z,3.10
2019-01-30T14:50:23.395Z,3.20
2019-01-30T14:52:52.467Z,3.20
2019-01-30T14:55:23.129Z,2.70
2019-01-30T14:57:52.429Z,2.80
2019-01-30T15:00:26.887Z,3.03
2019-01-30T15:02:56.199Z,3.20
2019-01-30T15:05:25.728Z,3.30
2019-01-30T15:07:55.041Z,3.57
2019-01-30T15:10:24.358Z,4.90
2019-01-30T15:12:53.433Z,3.30
2019-01-30T15:15:24.442Z,5.20
2019-01-30T15:17:54.081Z,4.53
2019-01-30T15:20:25.065Z,4.07
2019-01-30T15:22:54.459Z,4.67
2019-01-30T15:25:25.086Z,3.53
2019-01-30T15:27:54.147Z,3.90
2019-01-30T15:30:37.514Z,4.13
2019-01-30T15:33:06.821Z,5.47
2019-01-30T15:35:36.120Z,5.40
2019-01-30T15:38:07.302Z,7.47
2019-01-30T15:40:36.599Z,5.13
2019-01-30T15:43:06.010Z,4.70
2019-01-30T15:45:35.484Z,4.30
2019-01-30T15:48:05.231Z,4.70
2019-01-30T15:50:35.490Z,4.40
2019-01-30T15:53:07.650Z,4.80
2019-01-30T15:55:36.667Z,4.47
2019-01-30T15:58:08.390Z,4.23
2019-01-30T16:00:55.830Z,4.27
2019-01-30T16:03:25.165Z,4.90
2019-01-30T16:05:55.177Z,4.57
2019-01-30T16:08:24.605Z,5.20
2019-01-30T16:10:53.959Z,6.63
2019-01-30T16:13:23.020Z,14.37
2019-01-30T16:15:57.766Z,10.23
2019-01-30T16:18:28.418Z,21.53
2019-01-30T16:20:57.401Z,10.67
2019-01-30T16:23:26.460Z,20.30
2019-01-30T16:25:55.857Z,13.97
2019-01-30T16:28:25.275Z,17.53
2019-01-30T16:30:54.541Z,22.57
2019-01-30T16:33:23.581Z,15.33
2019-01-30T16:35:56.139Z,14.07
2019-01-30T16:38:24.021Z,10.10
2019-01-30T16:40:53.018Z,8.10
2019-01-30T16:43:22.471Z,8.57
2019-01-30T16:45:52.742Z,17.87
2019-01-30T16:48:21.755Z,15.43
2019-01-30T16:50:51.776Z,7.07
2019-01-30T16:53:21.255Z,6.57
2019-01-30T16:55:50.632Z,7.07
2019-01-30T16:58:20.609Z,6.63
2019-01-30T17:00:50.234Z,6.73
2019-01-30T17:03:19.278Z,7.20
2019-01-30T17:05:48.634Z,8.00
2019-01-30T17:08:17.963Z,7.00
2019-01-30T17:10:47.122Z,8.60
2019-01-30T17:13:16.205Z,8.20
2019-01-30T17:15:45.231Z,6.90
2019-01-30T17:18:15.316Z,7.23
2019-01-30T17:20:44.699Z,7.80
2019-01-30T17:23:13.727Z,7.63
2019-01-30T17:25:44.739Z,7.57
2019-01-30T17:28:14.115Z,7.70
2019-01-30T17:30:46.387Z,7.03
2019-01-30T17:33:15.779Z,7.97
2019-01-30T17:35:45.232Z,7.93
2019-01-30T17:38:14.274Z,8.53
2019-01-30T17:40:44.122Z,8.73
2019-01-30T17:43:13.229Z,8.43
2019-01-30T17:45:42.267Z,8.40
2019-01-30T17:48:12.920Z,7.50
2019-01-30T17:50:42.380Z,8.03
2019-01-30T17:53:11.482Z,7.23
2019-01-30T17:55:40.884Z,8.20
2019-01-30T17:58:10.032Z,8.77
2019-01-30T18:00:46.747Z,8.43
2019-01-30T18:03:17.186Z,9.33
2019-01-30T18:05:46.562Z,8.80
2019-01-30T18:08:15.582Z,9.30
2019-01-30T18:10:44.972Z,9.40
2019-01-30T18:13:14.300Z,9.10
2019-01-30T18:15:43.676Z,9.07
2019-01-30T18:18:12.741Z,9.83
2019-01-30T18:20:41.757Z,10.27
2019-01-30T18:23:10.795Z,10.27
2019-01-30T18:25:40.215Z,10.13
2019-01-30T18:28:09.258Z,10.10
2019-01-30T18:30:38.371Z,9.97
2019-01-30T18:33:07.424Z,9.90
2019-01-30T18:35:36.449Z,9.63
2019-01-30T18:38:06.433Z,10.60
2019-01-30T18:40:35.474Z,9.30
2019-01-30T18:43:04.632Z,13.20
2019-01-30T18:45:33.669Z,17.87
2019-01-30T18:48:02.715Z,14.30
2019-01-30T18:50:32.040Z,13.57
2019-01-30T18:53:01.088Z,15.10
2019-01-30T18:55:31.065Z,15.67
2019-01-30T18:58:00.711Z,17.87
2019-01-30T19:00:32.087Z,25.00
2019-01-30T19:03:02.467Z,30.53
2019-01-30T19:05:32.331Z,21.97
2019-01-30T19:08:01.383Z,17.93
2019-01-30T19:10:30.387Z,25.20
2019-01-30T19:12:59.431Z,23.97
2019-01-30T19:15:29.130Z,37.20
2019-01-30T19:17:58.495Z,41.90
2019-01-30T19:20:38.345Z,17.90
2019-01-30T19:23:07.439Z,17.03
2019-01-30T19:25:36.639Z,30.40
2019-01-30T19:28:06.291Z,41.67
2019-01-30T19:30:35.430Z,17.83
2019-01-30T19:33:06.637Z,14.70
2019-01-30T19:35:35.663Z,15.43
2019-01-30T19:38:05.435Z,17.03
2019-01-30T19:40:34.727Z,14.80
2019-01-30T19:43:03.852Z,14.60
2019-01-30T19:45:33.174Z,13.77
2019-01-30T19:48:02.258Z,13.47
2019-01-30T19:50:31.407Z,16.17
2019-01-30T19:53:00.841Z,15.60
2019-01-30T19:55:29.882Z,20.17
2019-01-30T19:57:59.253Z,17.23
2019-01-30T20:00:33.771Z,17.70
2019-01-30T20:03:03.905Z,17.07
2019-01-30T20:05:32.937Z,17.23
2019-01-30T20:08:02.273Z,18.57
2019-01-30T20:10:33.325Z,17.70
2019-01-30T20:13:02.480Z,16.37
2019-01-30T20:15:32.143Z,16.47
2019-01-30T20:18:01.329Z,15.83
2019-01-30T20:20:30.891Z,15.90
2019-01-30T20:22:59.947Z,17.60
2019-01-30T20:25:31.609Z,20.80
2019-01-30T20:28:01.022Z,23.53
2019-01-30T20:30:30.071Z,21.13
2019-01-30T20:32:59.126Z,20.97
2019-01-30T20:35:28.297Z,20.57
2019-01-30T20:37:57.328Z,16.93
2019-01-30T20:40:27.625Z,16.20
2019-01-30T20:42:57.234Z,17.27
2019-01-30T20:45:33.412Z,18.43
2019-01-30T20:47:57.236Z,17.10
2019-01-30T20:50:28.001Z,18.43
2019-01-30T20:52:57.501Z,21.40
2019-01-30T20:55:27.058Z,19.37
2019-01-30T20:57:56.357Z,17.90
2019-01-30T21:00:30.219Z,15.87
2019-01-30T21:02:59.522Z,14.67
2019-01-30T21:05:28.637Z,15.50
2019-01-30T21:07:58.161Z,15.53
2019-01-30T21:10:29.571Z,14.17
2019-01-30T21:13:01.766Z,13.80
2019-01-30T21:15:31.085Z,21.93
2019-01-30T21:18:00.175Z,21.93
2019-01-30T21:20:29.279Z,18.67
2019-01-30T21:22:58.818Z,18.33
2019-01-30T21:25:27.930Z,19.00
2019-01-30T21:27:59.119Z,20.40
2019-01-30T21:30:33.110Z,19.03
2019-01-30T21:33:02.147Z,15.47
2019-01-30T21:35:31.278Z,14.70
2019-01-30T21:38:00.334Z,14.77
2019-01-30T21:40:29.645Z,12.90
2019-01-30T21:42:59.677Z,14.93
2019-01-30T21:45:28.705Z,13.87
2019-01-30T21:47:57.745Z,15.07
2019-01-30T21:50:27.133Z,14.97
2019-01-30T21:52:56.200Z,16.50
2019-01-30T21:55:25.583Z,15.40
2019-01-30T21:57:54.605Z,15.03
2019-01-30T22:00:25.283Z,15.10
2019-01-30T22:02:54.629Z,15.13
2019-01-30T22:05:23.808Z,16.60
2019-01-30T22:08:00.682Z,13.40
2019-01-30T22:10:25.851Z,11.87
2019-01-30T22:12:54.939Z,12.20
2019-01-30T22:15:24.520Z,14.30
2019-01-30T22:17:57.300Z,13.63
2019-01-30T22:20:27.085Z,14.67
2019-01-30T22:22:56.444Z,14.70
2019-01-30T22:25:26.149Z,15.47
2019-01-30T22:27:55.833Z,15.60
2019-01-30T22:30:26.687Z,20.03
2019-01-30T22:32:55.673Z,18.63
2019-01-30T22:35:24.697Z,18.27
2019-01-30T22:37:53.829Z,17.80
2019-01-30T22:40:22.895Z,18.20
2019-01-30T22:42:51.913Z,17.03
2019-01-30T22:45:21.028Z,15.27
2019-01-30T22:47:50.328Z,14.90
2019-01-30T22:50:20.522Z,15.43
2019-01-30T22:52:49.971Z,14.97
2019-01-30T22:55:20.555Z,15.70
2019-01-30T22:57:50.968Z,16.03
2019-01-30T23:00:58.540Z,17.03
2019-01-30T23:03:58.765Z,15.60
2019-01-30T23:06:56.497Z,17.33
2019-01-30T23:09:49.253Z,17.40
2019-01-30T23:13:02.828Z,18.73
2019-01-30T23:16:00.344Z,19.50
2019-01-30T23:18:51.080Z,19.70
2019-01-30T23:21:25.209Z,20.27
2019-01-30T23:24:29.924Z,19.30
2019-01-30T23:27:19.445Z,19.93
2019-01-30T23:30:13.529Z,19.77
2019-01-30T23:33:25.350Z,22.03
2019-01-30T23:36:35.757Z,18.67
2019-01-30T23:39:37.073Z,18.30
2019-01-30T23:42:43.966Z,19.40
2019-01-30T23:45:29.668Z,19.47
2019-01-30T23:48:44.962Z,19.30
2019-01-30T23:51:27.456Z,18.93
2019-01-30T23:54:43.840Z,17.33
2019-01-30T23:57:28.928Z,20.60
